Silver Lake, Massachusetts
Current Conditions -  °F | °C
As of 5:52 AM on Thursday 23 Oct 2014 (Local Time) from KPYM Reporting Station
Light Rain Light Rain  
Wind Chill: 56°   Ceiling: 700
Heat Index: 56°   Visibility: 8mi
Dew Point: 55°   Wind: 20mph
Humidity: 97%   Direction: 20°NNE
Pressure: 29.59"   Gusts: 26mph
Location:  41.9862°N, 70.748°W
Report Text: KPYM 230952Z AUTO 02017G23KT 8SM -RA BKN007 BKN055 OVC090 13/13 A2959 RMK AO2 PK WND 01029/0923 SLP021 P0003 T01330128
Loading
Personal Weather Stations






























Interactive Weather Map
Tropical Storm Tracking
New forecast layout! Learn more

10-Day Weather Forecast

Advertisements
Track Severe Weather on mobile